sensor_id;sensor_type;location;lat;lon;timestamp;temperature;humidity
10472;DHT22;5283;48.876;8.962;2024-01-10T00:00:09;-8.10;99.90
10472;DHT22;5283;48.876;8.962;2024-01-10T00:02:35;-8.00;99.90
10472;DHT22;5283;48.876;8.962;2024-01-10T00:05:02;-7.90;99.90
10472;DHT22;5283;48.876;8.962;2024-01-10T00:07:30;-7.90;99.90
10472;DHT22;5283;48.876;8.962;2024-01-10T00:09:56;-7.80;99.90
10472;DHT22;5283;48.876;8.962;2024-01-10T00:12:26;-7.70;99.90
10472;DHT22;5283;48.876;8.962;2024-01-10T00:14:52;-7.70;99.90
10472;DHT22;5283;48.876;8.962;2024-01-10T00:17:19;-7.70;99.90
10472;DHT22;5283;48.876;8.962;2024-01-10T00:19:46;-7.60;99.90
10472;DHT22;5283;48.876;8.962;2024-01-10T00:22:13;-7.60;99.90
10472;DHT22;5283;48.876;8.962;2024-01-10T00:24:40;-7.60;99.90
10472;DHT22;5283;48.876;8.962;2024-01-10T00:27:06;-7.60;99.90
10472;DHT22;5283;48.876;8.962;2024-01-10T00:29:33;-7.60;99.90
10472;DHT22;5283;48.876;8.962;2024-01-10T00:32:00;-7.50;99.90
10472;DHT22;5283;48.876;8.962;2024-01-10T00:34:26;-7.50;99.90
10472;DHT22;5283;48.876;8.962;2024-01-10T00:36:53;-7.50;99.90
10472;DHT22;5283;48.876;8.962;2024-01-10T00:39:20;-7.40;99.90
10472;DHT22;5283;48.876;8.962;2024-01-10T00:41:47;-7.40;99.90
10472;DHT22;5283;48.876;8.962;2024-01-10T00:44:13;-7.40;99.90
10472;DHT22;5283;48.876;8.962;2024-01-10T00:46:40;-7.20;99.90
10472;DHT22;5283;48.876;8.962;2024-01-10T00:49:07;-7.20;99.90
10472;DHT22;5283;48.876;8.962;2024-01-10T00:51:33;-7.20;99.90
10472;DHT22;5283;48.876;8.962;2024-01-10T00:54:00;-7.10;99.90
10472;DHT22;5283;48.876;8.962;2024-01-10T00:56:27;-7.10;99.90
10472;DHT22;5283;48.876;8.962;2024-01-10T00:58:54;-7.00;99.90
10472;DHT22;5283;48.876;8.962;2024-01-10T01:01:24;-7.00;99.90
10472;DHT22;5283;48.876;8.962;2024-01-10T01:03:51;-7.00;99.90
10472;DHT22;5283;48.876;8.962;2024-01-10T01:06:17;-7.00;99.90
10472;DHT22;5283;48.876;8.962;2024-01-10T01:08:44;-6.90;99.90
10472;DHT22;5283;48.876;8.962;2024-01-10T01:11:11;-6.90;99.90
10472;DHT22;5283;48.876;8.962;2024-01-10T01:13:40;-6.90;99.90
10472;DHT22;5283;48.876;8.962;2024-01-10T01:16:07;-6.90;99.90
10472;DHT22;5283;48.876;8.962;2024-01-10T01:18:34;-6.90;99.90
10472;DHT22;5283;48.876;8.962;2024-01-10T01:21:01;-6.80;99.90
10472;DHT22;5283;48.876;8.962;2024-01-10T01:23:28;-6.80;99.90
10472;DHT22;5283;48.876;8.962;2024-01-10T01:25:57;-6.80;99.90
10472;DHT22;5283;48.876;8.962;2024-01-10T01:28:24;-6.80;99.90
10472;DHT22;5283;48.876;8.962;2024-01-10T01:30:51;-6.80;99.90
10472;DHT22;5283;48.876;8.962;2024-01-10T01:33:17;-6.70;99.90
10472;DHT22;5283;48.876;8.962;2024-01-10T01:35:44;-6.70;99.90
10472;DHT22;5283;48.876;8.962;2024-01-10T01:38:11;-6.70;99.90
10472;DHT22;5283;48.876;8.962;2024-01-10T01:40:37;-6.70;99.90
10472;DHT22;5283;48.876;8.962;2024-01-10T01:43:21;-6.70;99.90
10472;DHT22;5283;48.876;8.962;2024-01-10T01:45:52;-6.60;99.90
10472;DHT22;5283;48.876;8.962;2024-01-10T01:48:20;-6.60;99.90
10472;DHT22;5283;48.876;8.962;2024-01-10T01:50:51;-6.60;99.90
10472;DHT22;5283;48.876;8.962;2024-01-10T01:53:18;-6.60;99.90
10472;DHT22;5283;48.876;8.962;2024-01-10T01:55:46;-6.50;99.90
10472;DHT22;5283;48.876;8.962;2024-01-10T01:58:13;-6.40;99.90
10472;DHT22;5283;48.876;8.962;2024-01-10T02:00:40;-6.40;99.90
10472;DHT22;5283;48.876;8.962;2024-01-10T02:03:10;-6.40;99.90
10472;DHT22;5283;48.876;8.962;2024-01-10T02:05:37;-6.30;99.90
10472;DHT22;5283;48.876;8.962;2024-01-10T02:08:04;-6.30;99.90
10472;DHT22;5283;48.876;8.962;2024-01-10T02:10:31;-6.30;99.90
10472;DHT22;5283;48.876;8.962;2024-01-10T02:12:58;-6.20;99.90
10472;DHT22;5283;48.876;8.962;2024-01-10T02:15:24;-6.20;99.90
10472;DHT22;5283;48.876;8.962;2024-01-10T02:17:51;-6.10;99.90
10472;DHT22;5283;48.876;8.962;2024-01-10T02:20:18;-6.10;99.90
10472;DHT22;5283;48.876;8.962;2024-01-10T02:22:45;-6.00;99.90
10472;DHT22;5283;48.876;8.962;2024-01-10T02:25:13;-6.00;99.90
10472;DHT22;5283;48.876;8.962;2024-01-10T02:27:40;-6.00;99.90
10472;DHT22;5283;48.876;8.962;2024-01-10T02:30:08;-5.90;99.90
10472;DHT22;5283;48.876;8.962;2024-01-10T02:32:35;-5.90;99.90
10472;DHT22;5283;48.876;8.962;2024-01-10T02:35:03;-5.90;99.90
10472;DHT22;5283;48.876;8.962;2024-01-10T02:37:31;-5.90;99.90
10472;DHT22;5283;48.876;8.962;2024-01-10T02:39:57;-5.80;99.90
10472;DHT22;5283;48.876;8.962;2024-01-10T02:42:24;-5.80;99.90
10472;DHT22;5283;48.876;8.962;2024-01-10T02:44:51;-5.80;99.90
10472;DHT22;5283;48.876;8.962;2024-01-10T02:47:17;-5.80;99.90
10472;DHT22;5283;48.876;8.962;2024-01-10T02:49:44;-5.90;99.90
10472;DHT22;5283;48.876;8.962;2024-01-10T02:52:11;-6.00;99.90
10472;DHT22;5283;48.876;8.962;2024-01-10T02:54:38;-6.00;99.90
10472;DHT22;5283;48.876;8.962;2024-01-10T02:57:05;-6.10;99.90
10472;DHT22;5283;48.876;8.962;2024-01-10T02:59:31;-6.20;99.90
10472;DHT22;5283;48.876;8.962;2024-01-10T03:01:58;-6.30;99.90
10472;DHT22;5283;48.876;8.962;2024-01-10T03:04:25;-6.40;99.90
10472;DHT22;5283;48.876;8.962;2024-01-10T03:06:51;-6.50;99.90
10472;DHT22;5283;48.876;8.962;2024-01-10T03:09:18;-6.60;99.90
10472;DHT22;5283;48.876;8.962;2024-01-10T03:11:45;-6.70;99.90
10472;DHT22;5283;48.876;8.962;2024-01-10T03:14:11;-6.80;99.90
10472;DHT22;5283;48.876;8.962;2024-01-10T03:16:38;-6.90;99.90
10472;DHT22;5283;48.876;8.962;2024-01-10T03:19:05;-7.00;99.90
10472;DHT22;5283;48.876;8.962;2024-01-10T03:21:32;-7.10;99.90
10472;DHT22;5283;48.876;8.962;2024-01-10T03:24:00;-6.90;99.90
10472;DHT22;5283;48.876;8.962;2024-01-10T03:26:28;-6.90;99.90
10472;DHT22;5283;48.876;8.962;2024-01-10T03:28:54;-7.00;99.90
10472;DHT22;5283;48.876;8.962;2024-01-10T03:31:21;-7.00;99.90
10472;DHT22;5283;48.876;8.962;2024-01-10T03:33:48;-7.00;99.90
10472;DHT22;5283;48.876;8.962;2024-01-10T03:36:16;-7.10;99.90
10472;DHT22;5283;48.876;8.962;2024-01-10T03:42:43;-7.20;99.90
10472;DHT22;5283;48.876;8.962;2024-01-10T03:45:10;-7.10;99.90
10472;DHT22;5283;48.876;8.962;2024-01-10T03:47:37;-7.10;99.90
10472;DHT22;5283;48.876;8.962;2024-01-10T03:50:04;-7.00;99.90
10472;DHT22;5283;48.876;8.962;2024-01-10T03:52:30;-6.90;99.90
10472;DHT22;5283;48.876;8.962;2024-01-10T03:54:57;-6.80;99.90
10472;DHT22;5283;48.876;8.962;2024-01-10T03:57:24;-6.60;99.90
10472;DHT22;5283;48.876;8.962;2024-01-10T03:59:50;-6.60;99.90
10472;DHT22;5283;48.876;8.962;2024-01-10T04:02:17;-6.50;99.90
10472;DHT22;5283;48.876;8.962;2024-01-10T04:04:44;-6.50;99.90
10472;DHT22;5283;48.876;8.962;2024-01-10T04:07:10;-6.50;99.90
10472;DHT22;5283;48.876;8.962;2024-01-10T04:09:37;-6.50;99.90
10472;DHT22;5283;48.876;8.962;2024-01-10T04:12:04;-6.40;99.90
10472;DHT22;5283;48.876;8.962;2024-01-10T04:14:31;-6.40;99.90
10472;DHT22;5283;48.876;8.962;2024-01-10T04:16:57;-6.30;99.90
10472;DHT22;5283;48.876;8.962;2024-01-10T04:19:24;-6.30;99.90
10472;DHT22;5283;48.876;8.962;2024-01-10T04:21:51;-6.30;99.90
10472;DHT22;5283;48.876;8.962;2024-01-10T04:24:17;-6.30;99.90
10472;DHT22;5283;48.876;8.962;2024-01-10T04:26:44;-6.20;99.90
10472;DHT22;5283;48.876;8.962;2024-01-10T04:29:11;-6.20;99.90
10472;DHT22;5283;48.876;8.962;2024-01-10T04:31:38;-6.10;99.90
10472;DHT22;5283;48.876;8.962;2024-01-10T04:34:05;-6.00;99.90
10472;DHT22;5283;48.876;8.962;2024-01-10T04:36:31;-5.90;99.90
10472;DHT22;5283;48.876;8.962;2024-01-10T04:38:58;-5.90;99.90
10472;DHT22;5283;48.876;8.962;2024-01-10T04:41:25;-5.80;99.90
10472;DHT22;5283;48.876;8.962;2024-01-10T04:43:52;-5.80;99.90
10472;DHT22;5283;48.876;8.962;2024-01-10T04:46:18;-5.70;99.90
10472;DHT22;5283;48.876;8.962;2024-01-10T04:48:45;-5.70;99.90
10472;DHT22;5283;48.876;8.962;2024-01-10T04:51:12;-5.60;99.90
10472;DHT22;5283;48.876;8.962;2024-01-10T04:53:38;-5.50;99.90
10472;DHT22;5283;48.876;8.962;2024-01-10T04:56:05;-5.50;99.90
10472;DHT22;5283;48.876;8.962;2024-01-10T04:58:32;-5.40;99.90
10472;DHT22;5283;48.876;8.962;2024-01-10T05:01:03;-5.40;99.90
10472;DHT22;5283;48.876;8.962;2024-01-10T05:03:30;-5.40;99.90
10472;DHT22;5283;48.876;8.962;2024-01-10T05:05:57;-5.40;99.90
10472;DHT22;5283;48.876;8.962;2024-01-10T05:08:24;-5.40;99.90
10472;DHT22;5283;48.876;8.962;2024-01-10T05:10:50;-5.50;99.90
10472;DHT22;5283;48.876;8.962;2024-01-10T05:13:17;-5.50;99.90
10472;DHT22;5283;48.876;8.962;2024-01-10T05:15:44;-5.50;99.90
10472;DHT22;5283;48.876;8.962;2024-01-10T05:18:10;-5.60;99.90
10472;DHT22;5283;48.876;8.962;2024-01-10T05:20:37;-5.60;99.90
10472;DHT22;5283;48.876;8.962;2024-01-10T05:23:04;-5.60;99.90
10472;DHT22;5283;48.876;8.962;2024-01-10T05:25:31;-5.60;99.90
10472;DHT22;5283;48.876;8.962;2024-01-10T05:27:58;-5.60;99.90
10472;DHT22;5283;48.876;8.962;2024-01-10T05:30:25;-5.60;99.90
10472;DHT22;5283;48.876;8.962;2024-01-10T05:32:53;-5.50;99.90
10472;DHT22;5283;48.876;8.962;2024-01-10T05:35:20;-5.60;99.90
10472;DHT22;5283;48.876;8.962;2024-01-10T05:37:47;-5.60;99.90
10472;DHT22;5283;48.876;8.962;2024-01-10T05:40:14;-5.70;99.90
10472;DHT22;5283;48.876;8.962;2024-01-10T05:42:40;-5.70;99.90
10472;DHT22;5283;48.876;8.962;2024-01-10T05:45:07;-5.70;99.90
10472;DHT22;5283;48.876;8.962;2024-01-10T05:47:34;-5.80;99.90
10472;DHT22;5283;48.876;8.962;2024-01-10T05:50:02;-5.80;99.90
10472;DHT22;5283;48.876;8.962;2024-01-10T05:52:30;-5.90;99.90
10472;DHT22;5283;48.876;8.962;2024-01-10T05:54:57;-6.00;99.90
10472;DHT22;5283;48.876;8.962;2024-01-10T05:57:24;-6.10;99.90
10472;DHT22;5283;48.876;8.962;2024-01-10T05:59:50;-6.30;99.90
10472;DHT22;5283;48.876;8.962;2024-01-10T06:02:19;-6.30;99.90
10472;DHT22;5283;48.876;8.962;2024-01-10T06:04:45;-6.40;99.90
10472;DHT22;5283;48.876;8.962;2024-01-10T06:07:12;-6.40;99.90
10472;DHT22;5283;48.876;8.962;2024-01-10T06:09:39;-6.40;99.90
10472;DHT22;5283;48.876;8.962;2024-01-10T06:12:06;-6.50;99.90
10472;DHT22;5283;48.876;8.962;2024-01-10T06:14:33;-6.50;99.90
10472;DHT22;5283;48.876;8.962;2024-01-10T06:17:00;-6.60;99.90
10472;DHT22;5283;48.876;8.962;2024-01-10T06:19:27;-6.70;99.90
10472;DHT22;5283;48.876;8.962;2024-01-10T06:21:54;-6.80;99.90
10472;DHT22;5283;48.876;8.962;2024-01-10T06:24:21;-6.90;99.90
10472;DHT22;5283;48.876;8.962;2024-01-10T06:26:47;-7.10;99.90
10472;DHT22;5283;48.876;8.962;2024-01-10T06:29:17;-7.20;99.90
10472;DHT22;5283;48.876;8.962;2024-01-10T06:31:44;-7.20;99.90
10472;DHT22;5283;48.876;8.962;2024-01-10T06:34:11;-7.20;99.90
10472;DHT22;5283;48.876;8.962;2024-01-10T06:36:38;-7.30;99.90
10472;DHT22;5283;48.876;8.962;2024-01-10T06:39:05;-7.30;99.90
10472;DHT22;5283;48.876;8.962;2024-01-10T06:41:31;-7.20;99.90
10472;DHT22;5283;48.876;8.962;2024-01-10T06:43:58;-7.10;99.90
10472;DHT22;5283;48.876;8.962;2024-01-10T06:46:25;-7.00;99.90
10472;DHT22;5283;48.876;8.962;2024-01-10T06:48:52;-7.00;99.90
10472;DHT22;5283;48.876;8.962;2024-01-10T06:51:19;-7.10;99.90
10472;DHT22;5283;48.876;8.962;2024-01-10T06:53:46;-7.10;99.90
10472;DHT22;5283;48.876;8.962;2024-01-10T06:56:12;-7.20;99.90
10472;DHT22;5283;48.876;8.962;2024-01-10T06:58:39;-7.30;99.90
10472;DHT22;5283;48.876;8.962;2024-01-10T07:01:11;-7.30;99.90
10472;DHT22;5283;48.876;8.962;2024-01-10T07:03:40;-7.30;99.90
10472;DHT22;5283;48.876;8.962;2024-01-10T07:06:07;-7.20;99.90
10472;DHT22;5283;48.876;8.962;2024-01-10T07:08:33;-7.20;99.90
10472;DHT22;5283;48.876;8.962;2024-01-10T07:11:00;-7.20;99.90
10472;DHT22;5283;48.876;8.962;2024-01-10T07:13:27;-7.20;99.90
10472;DHT22;5283;48.876;8.962;2024-01-10T07:15:54;-7.20;99.90
10472;DHT22;5283;48.876;8.962;2024-01-10T07:18:20;-7.20;99.90
10472;DHT22;5283;48.876;8.962;2024-01-10T07:20:47;-7.10;99.90
10472;DHT22;5283;48.876;8.962;2024-01-10T07:23:15;-7.10;99.90
10472;DHT22;5283;48.876;8.962;2024-01-10T07:25:41;-7.20;99.90
10472;DHT22;5283;48.876;8.962;2024-01-10T07:28:09;-7.30;99.90
10472;DHT22;5283;48.876;8.962;2024-01-10T07:30:36;-7.30;99.90
10472;DHT22;5283;48.876;8.962;2024-01-10T07:33:03;-7.40;99.90
10472;DHT22;5283;48.876;8.962;2024-01-10T07:35:29;-7.40;99.90
10472;DHT22;5283;48.876;8.962;2024-01-10T07:37:56;-7.50;99.90
10472;DHT22;5283;48.876;8.962;2024-01-10T07:40:23;-7.50;99.90
10472;DHT22;5283;48.876;8.962;2024-01-10T07:42:50;-7.50;99.90
10472;DHT22;5283;48.876;8.962;2024-01-10T07:45:17;-7.60;99.90
10472;DHT22;5283;48.876;8.962;2024-01-10T07:47:44;-7.60;99.90
10472;DHT22;5283;48.876;8.962;2024-01-10T07:50:11;-7.60;99.90
10472;DHT22;5283;48.876;8.962;2024-01-10T07:52:41;-7.60;99.90
10472;DHT22;5283;48.876;8.962;2024-01-10T07:55:08;-7.60;99.90
10472;DHT22;5283;48.876;8.962;2024-01-10T07:57:36;-7.50;99.90
10472;DHT22;5283;48.876;8.962;2024-01-10T08:00:06;-7.40;99.90
10472;DHT22;5283;48.876;8.962;2024-01-10T08:02:37;-7.40;99.90
10472;DHT22;5283;48.876;8.962;2024-01-10T08:05:06;-7.30;99.90
10472;DHT22;5283;48.876;8.962;2024-01-10T08:07:37;-7.20;99.90
10472;DHT22;5283;48.876;8.962;2024-01-10T08:10:08;-7.10;99.90
10472;DHT22;5283;48.876;8.962;2024-01-10T08:12:39;-6.90;99.90
10472;DHT22;5283;48.876;8.962;2024-01-10T08:15:08;-6.80;99.90
10472;DHT22;5283;48.876;8.962;2024-01-10T08:17:34;-6.70;99.90
10472;DHT22;5283;48.876;8.962;2024-01-10T08:20:08;-6.50;99.90
10472;DHT22;5283;48.876;8.962;2024-01-10T08:22:35;-6.30;99.90
10472;DHT22;5283;48.876;8.962;2024-01-10T08:25:01;-6.20;99.90
10472;DHT22;5283;48.876;8.962;2024-01-10T08:27:29;-6.10;99.90
10472;DHT22;5283;48.876;8.962;2024-01-10T08:29:56;-6.00;99.90
10472;DHT22;5283;48.876;8.962;2024-01-10T08:32:23;-5.80;99.90
10472;DHT22;5283;48.876;8.962;2024-01-10T08:34:50;-5.60;99.90
10472;DHT22;5283;48.876;8.962;2024-01-10T08:37:17;-5.40;99.90
10472;DHT22;5283;48.876;8.962;2024-01-10T08:39:44;-5.40;99.90
10472;DHT22;5283;48.876;8.962;2024-01-10T08:42:11;-5.30;99.90
10472;DHT22;5283;48.876;8.962;2024-01-10T08:44:38;-5.10;99.90
10472;DHT22;5283;48.876;8.962;2024-01-10T08:47:04;-4.90;99.90
10472;DHT22;5283;48.876;8.962;2024-01-10T08:49:31;-4.60;99.90
10472;DHT22;5283;48.876;8.962;2024-01-10T08:51:58;-4.70;99.90
10472;DHT22;5283;48.876;8.962;2024-01-10T08:54:24;-4.60;99.90
10472;DHT22;5283;48.876;8.962;2024-01-10T08:56:51;-4.30;99.90
10472;DHT22;5283;48.876;8.962;2024-01-10T08:59:18;-4.20;99.90
10472;DHT22;5283;48.876;8.962;2024-01-10T09:01:45;-4.20;99.90
10472;DHT22;5283;48.876;8.962;2024-01-10T09:04:12;-4.10;99.90
10472;DHT22;5283;48.876;8.962;2024-01-10T09:06:39;-4.00;99.90
10472;DHT22;5283;48.876;8.962;2024-01-10T09:09:06;-3.90;99.90
10472;DHT22;5283;48.876;8.962;2024-01-10T09:11:33;-3.90;99.90
10472;DHT22;5283;48.876;8.962;2024-01-10T09:14:01;-3.80;99.90
10472;DHT22;5283;48.876;8.962;2024-01-10T09:16:27;-3.80;99.90
10472;DHT22;5283;48.876;8.962;2024-01-10T09:18:54;-3.80;99.90
10472;DHT22;5283;48.876;8.962;2024-01-10T09:21:25;-3.70;99.90
10472;DHT22;5283;48.876;8.962;2024-01-10T09:23:53;-3.70;99.90
10472;DHT22;5283;48.876;8.962;2024-01-10T09:26:19;-3.60;99.90
10472;DHT22;5283;48.876;8.962;2024-01-10T09:28:46;-3.50;99.90
10472;DHT22;5283;48.876;8.962;2024-01-10T09:31:13;-3.60;99.90
10472;DHT22;5283;48.876;8.962;2024-01-10T09:33:40;-3.50;99.90
10472;DHT22;5283;48.876;8.962;2024-01-10T09:36:07;-3.40;99.90
10472;DHT22;5283;48.876;8.962;2024-01-10T09:38:37;-3.40;99.90
10472;DHT22;5283;48.876;8.962;2024-01-10T09:41:04;-3.30;99.90
10472;DHT22;5283;48.876;8.962;2024-01-10T09:43:32;-3.30;99.90
10472;DHT22;5283;48.876;8.962;2024-01-10T09:46:02;-3.20;99.90
10472;DHT22;5283;48.876;8.962;2024-01-10T09:48:29;-3.20;99.90
10472;DHT22;5283;48.876;8.962;2024-01-10T09:50:57;-3.20;99.90
10472;DHT22;5283;48.876;8.962;2024-01-10T09:53:25;-3.10;99.90
10472;DHT22;5283;48.876;8.962;2024-01-10T09:55:53;-3.10;99.90
10472;DHT22;5283;48.876;8.962;2024-01-10T09:58:24;-2.90;99.90
10472;DHT22;5283;48.876;8.962;2024-01-10T10:00:52;-2.80;99.90
10472;DHT22;5283;48.876;8.962;2024-01-10T10:03:19;-2.70;99.90
10472;DHT22;5283;48.876;8.962;2024-01-10T10:05:46;-2.70;99.90
10472;DHT22;5283;48.876;8.962;2024-01-10T10:08:14;-2.70;99.90
10472;DHT22;5283;48.876;8.962;2024-01-10T10:10:42;-2.60;99.90
10472;DHT22;5283;48.876;8.962;2024-01-10T10:13:24;-2.60;99.90
10472;DHT22;5283;48.876;8.962;2024-01-10T10:15:59;-2.60;99.90
10472;DHT22;5283;48.876;8.962;2024-01-10T10:18:27;-2.50;99.90
10472;DHT22;5283;48.876;8.962;2024-01-10T10:21:27;-2.50;99.90
10472;DHT22;5283;48.876;8.962;2024-01-10T10:24:01;-2.40;99.90
10472;DHT22;5283;48.876;8.962;2024-01-10T10:26:28;-2.40;99.90
10472;DHT22;5283;48.876;8.962;2024-01-10T10:28:56;-2.30;99.90
10472;DHT22;5283;48.876;8.962;2024-01-10T10:31:23;-2.20;99.90
10472;DHT22;5283;48.876;8.962;2024-01-10T10:33:51;-2.10;99.90
10472;DHT22;5283;48.876;8.962;2024-01-10T10:36:19;-2.10;99.90
10472;DHT22;5283;48.876;8.962;2024-01-10T10:38:47;-2.00;99.90
10472;DHT22;5283;48.876;8.962;2024-01-10T10:41:15;-2.00;99.90
10472;DHT22;5283;48.876;8.962;2024-01-10T10:43:42;-1.90;99.90
10472;DHT22;5283;48.876;8.962;2024-01-10T10:46:10;-1.80;99.90
10472;DHT22;5283;48.876;8.962;2024-01-10T10:48:39;-1.70;99.90
10472;DHT22;5283;48.876;8.962;2024-01-10T10:51:09;-1.70;99.90
10472;DHT22;5283;48.876;8.962;2024-01-10T10:53:37;-1.60;99.90
10472;DHT22;5283;48.876;8.962;2024-01-10T10:56:06;-1.50;99.90
10472;DHT22;5283;48.876;8.962;2024-01-10T10:58:36;-1.40;99.90
10472;DHT22;5283;48.876;8.962;2024-01-10T11:01:05;-1.40;99.90
10472;DHT22;5283;48.876;8.962;2024-01-10T11:03:36;-1.40;99.90
10472;DHT22;5283;48.876;8.962;2024-01-10T11:06:04;-1.30;99.90
10472;DHT22;5283;48.876;8.962;2024-01-10T11:08:52;-1.20;99.90
10472;DHT22;5283;48.876;8.962;2024-01-10T11:17:05;-1.20;99.90
10472;DHT22;5283;48.876;8.962;2024-01-10T11:25:07;-1.10;99.90
10472;DHT22;5283;48.876;8.962;2024-01-10T11:27:36;-1.10;99.90
10472;DHT22;5283;48.876;8.962;2024-01-10T11:30:03;-1.10;99.90
10472;DHT22;5283;48.876;8.962;2024-01-10T11:32:32;-1.00;99.90
10472;DHT22;5283;48.876;8.962;2024-01-10T11:35:03;-1.10;99.90
10472;DHT22;5283;48.876;8.962;2024-01-10T11:37:44;-1.10;99.90
10472;DHT22;5283;48.876;8.962;2024-01-10T11:40:12;-1.00;99.90
10472;DHT22;5283;48.876;8.962;2024-01-10T11:42:44;-1.00;99.90
10472;DHT22;5283;48.876;8.962;2024-01-10T11:47:57;-0.90;99.90
10472;DHT22;5283;48.876;8.962;2024-01-10T11:50:25;-0.90;99.90
10472;DHT22;5283;48.876;8.962;2024-01-10T11:52:53;-0.90;99.90
10472;DHT22;5283;48.876;8.962;2024-01-10T11:55:51;-0.90;99.90
10472;DHT22;5283;48.876;8.962;2024-01-10T11:58:23;-0.90;99.90
10472;DHT22;5283;48.876;8.962;2024-01-10T12:00:50;-0.80;99.90
10472;DHT22;5283;48.876;8.962;2024-01-10T12:03:18;-0.80;99.90
10472;DHT22;5283;48.876;8.962;2024-01-10T12:05:46;-0.80;99.90
10472;DHT22;5283;48.876;8.962;2024-01-10T12:08:13;-0.80;99.90
10472;DHT22;5283;48.876;8.962;2024-01-10T12:10:40;-0.80;99.90
10472;DHT22;5283;48.876;8.962;2024-01-10T12:13:07;-0.70;99.90
10472;DHT22;5283;48.876;8.962;2024-01-10T12:15:33;-0.70;99.90
10472;DHT22;5283;48.876;8.962;2024-01-10T12:18:00;-0.60;99.90
10472;DHT22;5283;48.876;8.962;2024-01-10T12:20:27;-0.50;99.90
10472;DHT22;5283;48.876;8.962;2024-01-10T12:22:55;-0.40;99.90
10472;DHT22;5283;48.876;8.962;2024-01-10T12:25:22;-0.40;99.90
10472;DHT22;5283;48.876;8.962;2024-01-10T12:27:50;-0.40;99.90
10472;DHT22;5283;48.876;8.962;2024-01-10T12:30:16;-0.50;99.90
10472;DHT22;5283;48.876;8.962;2024-01-10T12:32:44;-0.50;99.90
10472;DHT22;5283;48.876;8.962;2024-01-10T12:35:13;-0.50;99.90
10472;DHT22;5283;48.876;8.962;2024-01-10T12:37:39;-0.50;99.90
10472;DHT22;5283;48.876;8.962;2024-01-10T12:40:08;-0.50;99.90
10472;DHT22;5283;48.876;8.962;2024-01-10T12:42:36;-0.40;99.90
10472;DHT22;5283;48.876;8.962;2024-01-10T12:45:02;-0.40;99.90
10472;DHT22;5283;48.876;8.962;2024-01-10T12:47:30;-0.40;99.90
10472;DHT22;5283;48.876;8.962;2024-01-10T12:49:57;-0.30;99.90
10472;DHT22;5283;48.876;8.962;2024-01-10T12:52:24;-0.30;99.90
10472;DHT22;5283;48.876;8.962;2024-01-10T12:54:52;-0.20;99.90
10472;DHT22;5283;48.876;8.962;2024-01-10T12:57:19;-0.20;99.90
10472;DHT22;5283;48.876;8.962;2024-01-10T12:59:46;-0.20;99.90
10472;DHT22;5283;48.876;8.962;2024-01-10T13:02:12;-0.10;99.90
10472;DHT22;5283;48.876;8.962;2024-01-10T13:04:39;-0.10;99.90
10472;DHT22;5283;48.876;8.962;2024-01-10T13:07:06;-0.20;99.90
10472;DHT22;5283;48.876;8.962;2024-01-10T13:09:32;-0.10;99.90
10472;DHT22;5283;48.876;8.962;2024-01-10T13:12:00;-0.10;99.90
10472;DHT22;5283;48.876;8.962;2024-01-10T13:14:27;-0.10;99.90
10472;DHT22;5283;48.876;8.962;2024-01-10T13:16:54;0.00;99.90
10472;DHT22;5283;48.876;8.962;2024-01-10T13:19:22;0.00;99.90
10472;DHT22;5283;48.876;8.962;2024-01-10T13:21:49;0.00;99.90
10472;DHT22;5283;48.876;8.962;2024-01-10T13:24:15;0.00;99.90
10472;DHT22;5283;48.876;8.962;2024-01-10T13:26:42;0.00;99.90
10472;DHT22;5283;48.876;8.962;2024-01-10T13:29:08;0.00;99.90
10472;DHT22;5283;48.876;8.962;2024-01-10T13:31:35;0.00;99.90
10472;DHT22;5283;48.876;8.962;2024-01-10T13:34:03;0.00;99.90
10472;DHT22;5283;48.876;8.962;2024-01-10T13:36:30;0.00;99.90
10472;DHT22;5283;48.876;8.962;2024-01-10T13:38:57;0.10;99.90
10472;DHT22;5283;48.876;8.962;2024-01-10T13:41:24;0.00;99.90
10472;DHT22;5283;48.876;8.962;2024-01-10T13:43:52;0.00;99.90
10472;DHT22;5283;48.876;8.962;2024-01-10T13:46:18;0.00;99.90
10472;DHT22;5283;48.876;8.962;2024-01-10T13:48:46;0.00;99.90
10472;DHT22;5283;48.876;8.962;2024-01-10T13:51:13;0.00;99.90
10472;DHT22;5283;48.876;8.962;2024-01-10T13:53:39;0.00;99.90
10472;DHT22;5283;48.876;8.962;2024-01-10T13:56:06;0.00;99.90
10472;DHT22;5283;48.876;8.962;2024-01-10T13:58:33;0.00;99.90
10472;DHT22;5283;48.876;8.962;2024-01-10T14:01:00;0.00;99.90
10472;DHT22;5283;48.876;8.962;2024-01-10T14:03:27;0.00;99.90
10472;DHT22;5283;48.876;8.962;2024-01-10T14:05:55;0.00;99.90
10472;DHT22;5283;48.876;8.962;2024-01-10T14:08:21;0.00;99.90
10472;DHT22;5283;48.876;8.962;2024-01-10T14:10:48;0.00;99.90
10472;DHT22;5283;48.876;8.962;2024-01-10T14:13:15;-0.10;99.90
10472;DHT22;5283;48.876;8.962;2024-01-10T14:15:42;-0.10;99.90
10472;DHT22;5283;48.876;8.962;2024-01-10T14:18:08;-0.10;99.90
10472;DHT22;5283;48.876;8.962;2024-01-10T14:20:35;-0.20;99.90
10472;DHT22;5283;48.876;8.962;2024-01-10T14:23:02;-0.10;99.90
10472;DHT22;5283;48.876;8.962;2024-01-10T14:25:29;-0.10;99.90
10472;DHT22;5283;48.876;8.962;2024-01-10T14:27:56;-0.10;99.90
10472;DHT22;5283;48.876;8.962;2024-01-10T14:30:25;-0.10;99.90
10472;DHT22;5283;48.876;8.962;2024-01-10T14:32:52;-0.20;99.90
10472;DHT22;5283;48.876;8.962;2024-01-10T14:35:19;-0.20;99.90
10472;DHT22;5283;48.876;8.962;2024-01-10T14:37:45;-0.20;99.90
10472;DHT22;5283;48.876;8.962;2024-01-10T14:40:12;-0.20;99.90
10472;DHT22;5283;48.876;8.962;2024-01-10T14:42:39;-0.20;99.90
10472;DHT22;5283;48.876;8.962;2024-01-10T14:45:06;-0.20;99.90
10472;DHT22;5283;48.876;8.962;2024-01-10T14:47:33;-0.20;99.90
10472;DHT22;5283;48.876;8.962;2024-01-10T14:49:59;-0.30;99.90
10472;DHT22;5283;48.876;8.962;2024-01-10T14:52:26;-0.40;99.90
10472;DHT22;5283;48.876;8.962;2024-01-10T14:54:53;-0.40;99.90
10472;DHT22;5283;48.876;8.962;2024-01-10T14:57:20;-0.50;99.90
10472;DHT22;5283;48.876;8.962;2024-01-10T14:59:48;-0.50;99.90
10472;DHT22;5283;48.876;8.962;2024-01-10T15:02:15;-0.60;99.90
10472;DHT22;5283;48.876;8.962;2024-01-10T15:04:43;-0.70;99.90
10472;DHT22;5283;48.876;8.962;2024-01-10T15:07:10;-0.70;99.90
10472;DHT22;5283;48.876;8.962;2024-01-10T15:09:37;-0.70;99.90
10472;DHT22;5283;48.876;8.962;2024-01-10T15:12:07;-0.80;99.90
10472;DHT22;5283;48.876;8.962;2024-01-10T15:14:35;-0.90;99.90
10472;DHT22;5283;48.876;8.962;2024-01-10T15:17:05;-1.10;99.90
10472;DHT22;5283;48.876;8.962;2024-01-10T15:19:35;-1.20;99.90
10472;DHT22;5283;48.876;8.962;2024-01-10T15:22:02;-1.30;99.90
10472;DHT22;5283;48.876;8.962;2024-01-10T15:24:29;-1.30;99.90
10472;DHT22;5283;48.876;8.962;2024-01-10T15:26:56;-1.20;99.90
10472;DHT22;5283;48.876;8.962;2024-01-10T15:29:28;-1.20;99.90
10472;DHT22;5283;48.876;8.962;2024-01-10T15:31:55;-1.20;99.90
10472;DHT22;5283;48.876;8.962;2024-01-10T15:34:22;-1.10;99.90
10472;DHT22;5283;48.876;8.962;2024-01-10T15:36:51;-1.10;99.90
10472;DHT22;5283;48.876;8.962;2024-01-10T15:39:17;-1.30;99.90
10472;DHT22;5283;48.876;8.962;2024-01-10T15:41:48;-1.60;99.90
10472;DHT22;5283;48.876;8.962;2024-01-10T15:44:16;-1.90;99.90
10472;DHT22;5283;48.876;8.962;2024-01-10T15:46:44;-2.10;99.90
10472;DHT22;5283;48.876;8.962;2024-01-10T15:49:11;-2.30;99.90
10472;DHT22;5283;48.876;8.962;2024-01-10T15:51:39;-2.40;99.90
10472;DHT22;5283;48.876;8.962;2024-01-10T15:54:06;-2.50;99.90
10472;DHT22;5283;48.876;8.962;2024-01-10T15:56:32;-2.60;99.90
10472;DHT22;5283;48.876;8.962;2024-01-10T15:59:00;-2.70;99.90
10472;DHT22;5283;48.876;8.962;2024-01-10T16:01:27;-2.90;99.90
10472;DHT22;5283;48.876;8.962;2024-01-10T16:03:53;-3.10;99.90
10472;DHT22;5283;48.876;8.962;2024-01-10T16:06:20;-3.30;99.90